createdAt,value
2022-09-15T00:00:55.407Z,85.42
2022-09-15T00:03:23.123Z,85.98
2022-09-15T00:05:50.435Z,85.85
2022-09-15T00:08:17.045Z,86.04
2022-09-15T00:10:52.211Z,86.40
2022-09-15T00:13:20.050Z,86.65
2022-09-15T00:15:47.198Z,86.64
2022-09-15T00:18:14.163Z,86.34
2022-09-15T00:20:43.152Z,86.02
2022-09-15T00:23:11.977Z,85.29
2022-09-15T00:25:46.438Z,86.48
2022-09-15T00:28:14.691Z,87.11
2022-09-15T00:30:46.998Z,87.94
2022-09-15T00:33:15.443Z,88.31
2022-09-15T00:35:44.433Z,88.40
2022-09-15T00:38:13.125Z,88.85
2022-09-15T00:40:45.578Z,88.46
2022-09-15T00:43:12.329Z,87.07
2022-09-15T00:45:38.919Z,86.49
2022-09-15T00:48:07.936Z,86.59
2022-09-15T00:50:37.442Z,85.58
2022-09-15T00:53:07.412Z,86.35
2022-09-15T00:55:39.021Z,85.52
2022-09-15T00:58:09.508Z,84.95
2022-09-15T01:00:36.254Z,85.17
2022-09-15T01:03:03.875Z,86.57
2022-09-15T01:05:36.299Z,85.34
2022-09-15T01:08:11.568Z,84.84
2022-09-15T01:10:40.447Z,85.14
2022-09-15T01:13:10.225Z,84.45
2022-09-15T01:15:40.062Z,83.93
2022-09-15T01:18:36.487Z,83.04
2022-09-15T01:21:06.305Z,84.18
2022-09-15T01:23:57.023Z,85.42
2022-09-15T01:26:42.464Z,84.75
2022-09-15T01:29:42.961Z,85.47
2022-09-15T01:32:33.713Z,85.65
2022-09-15T01:35:09.506Z,86.74
2022-09-15T01:37:42.260Z,87.55
2022-09-15T01:40:10.610Z,90.26
2022-09-15T01:42:38.341Z,90.20
2022-09-15T01:45:15.651Z,88.59
2022-09-15T01:47:44.160Z,87.36
2022-09-15T01:50:17.605Z,87.28
2022-09-15T01:52:47.149Z,84.93
2022-09-15T01:55:22.594Z,85.87
2022-09-15T01:57:49.445Z,85.51
2022-09-15T02:00:16.298Z,85.42
2022-09-15T02:02:56.776Z,88.00
2022-09-15T02:05:47.643Z,86.95
2022-09-15T02:08:28.866Z,84.62
2022-09-15T02:11:11.310Z,83.54
2022-09-15T02:13:56.903Z,85.45
2022-09-15T02:16:28.140Z,86.13
2022-09-15T02:19:04.174Z,85.11
2022-09-15T02:21:42.313Z,87.79
2022-09-15T02:24:15.592Z,87.76
2022-09-15T02:26:43.152Z,87.15
2022-09-15T02:29:13.676Z,86.24
2022-09-15T02:31:42.387Z,86.30
2022-09-15T02:34:15.802Z,85.12
2022-09-15T02:36:43.407Z,84.06
2022-09-15T02:39:17.109Z,86.10
2022-09-15T02:41:43.991Z,86.09
2022-09-15T02:44:10.762Z,85.37
2022-09-15T02:46:37.891Z,85.68
2022-09-15T02:49:04.558Z,85.26
2022-09-15T02:51:31.313Z,84.84
2022-09-15T02:53:57.910Z,84.70
2022-09-15T02:56:24.676Z,83.99
2022-09-15T02:58:51.478Z,83.82
2022-09-15T03:01:18.638Z,83.62
2022-09-15T03:03:46.301Z,82.99
2022-09-15T03:06:13.538Z,82.87
2022-09-15T03:08:40.089Z,82.93
2022-09-15T03:11:06.708Z,83.25
2022-09-15T03:13:33.329Z,82.61
2022-09-15T03:16:00.007Z,82.05
2022-09-15T03:18:26.594Z,81.13
2022-09-15T03:20:56.895Z,81.12
2022-09-15T03:23:23.457Z,80.27
2022-09-15T03:25:50.086Z,81.36
2022-09-15T03:28:16.701Z,81.43
2022-09-15T03:30:43.409Z,81.67
2022-09-15T03:33:09.989Z,82.04
2022-09-15T03:35:36.878Z,81.03
2022-09-15T03:38:03.565Z,81.23
2022-09-15T03:40:30.290Z,80.90
2022-09-15T03:42:56.947Z,81.86
2022-09-15T03:45:23.885Z,82.13
2022-09-15T03:47:50.550Z,82.25
2022-09-15T03:50:17.376Z,81.99
2022-09-15T03:52:44.168Z,82.37
2022-09-15T03:55:10.786Z,82.28
2022-09-15T03:57:37.445Z,82.70
2022-09-15T04:00:05.773Z,82.62
2022-09-15T04:02:32.334Z,81.93
2022-09-15T04:04:58.998Z,82.30
2022-09-15T04:07:26.085Z,82.59
2022-09-15T04:09:52.729Z,82.30
2022-09-15T04:12:19.329Z,81.10
2022-09-15T04:14:46.318Z,82.78
2022-09-15T04:17:12.873Z,84.26
2022-09-15T04:19:39.604Z,86.13
2022-09-15T04:22:06.349Z,85.60
2022-09-15T04:24:33.014Z,85.11
2022-09-15T04:26:59.669Z,84.96
2022-09-15T04:29:26.579Z,84.95
2022-09-15T04:31:53.209Z,86.11
2022-09-15T04:34:19.994Z,85.05
2022-09-15T04:36:46.638Z,84.42
2022-09-15T04:39:13.337Z,83.50
2022-09-15T04:41:40.070Z,82.66
2022-09-15T04:44:06.715Z,81.73
2022-09-15T04:46:33.404Z,81.76
2022-09-15T04:49:00.485Z,82.05
2022-09-15T04:51:27.047Z,82.89
2022-09-15T04:53:54.162Z,82.49
2022-09-15T04:56:23.315Z,82.69
2022-09-15T04:58:52.826Z,82.38
2022-09-15T05:01:25.601Z,81.91
2022-09-15T05:03:52.462Z,81.97
2022-09-15T05:06:21.618Z,82.28
2022-09-15T05:08:53.831Z,82.32
2022-09-15T05:11:21.159Z,81.97
2022-09-15T05:13:48.086Z,82.10
2022-09-15T05:16:18.626Z,82.01
2022-09-15T05:18:47.249Z,82.32
2022-09-15T05:21:15.855Z,82.40
2022-09-15T05:23:42.653Z,82.17
2022-09-15T05:26:13.404Z,82.00
2022-09-15T05:28:40.829Z,82.28
2022-09-15T05:31:20.852Z,83.18
2022-09-15T05:33:49.193Z,85.16
2022-09-15T05:36:16.732Z,85.22
2022-09-15T05:38:44.634Z,84.61
2022-09-15T05:41:13.037Z,84.16
2022-09-15T05:43:40.096Z,82.96
2022-09-15T05:46:08.053Z,85.10
2022-09-15T05:48:35.232Z,86.63
2022-09-15T05:51:02.941Z,85.16
2022-09-15T05:53:30.826Z,85.60
2022-09-15T05:55:59.340Z,86.38
2022-09-15T05:58:26.711Z,86.43
2022-09-15T06:00:54.113Z,86.38
2022-09-15T06:03:21.826Z,86.12
2022-09-15T06:05:48.549Z,85.79
2022-09-15T06:08:16.135Z,85.39
2022-09-15T06:10:42.730Z,83.73
2022-09-15T06:13:09.371Z,87.08
2022-09-15T06:15:36.006Z,88.07
2022-09-15T06:18:02.622Z,88.34
2022-09-15T06:20:29.208Z,88.51
2022-09-15T06:22:55.949Z,88.73
2022-09-15T06:25:22.532Z,88.38
2022-09-15T06:27:49.667Z,87.99
2022-09-15T06:30:16.527Z,87.25
2022-09-15T06:32:47.521Z,86.86
2022-09-15T06:35:15.608Z,87.01
2022-09-15T06:37:42.258Z,86.68
2022-09-15T06:40:09.470Z,86.64
2022-09-15T06:44:25.383Z,86.55
2022-09-15T06:46:52.048Z,86.52
2022-09-15T06:49:18.983Z,87.19
2022-09-15T06:51:45.895Z,87.09
2022-09-15T06:54:12.479Z,86.73
2022-09-15T06:56:39.189Z,86.90
2022-09-15T06:59:06.133Z,87.62
2022-09-15T07:01:33.374Z,85.65
2022-09-15T07:04:01.266Z,87.19
2022-09-15T07:06:30.168Z,87.86
2022-09-15T07:08:57.504Z,88.20
2022-09-15T07:11:25.166Z,88.30
2022-09-15T07:13:52.230Z,88.16
2022-09-15T07:16:20.327Z,86.67
2022-09-15T07:18:48.217Z,85.84
2022-09-15T07:21:18.493Z,85.29
2022-09-15T07:23:46.013Z,85.87
2022-09-15T07:26:12.737Z,84.85
2022-09-15T07:28:41.370Z,84.92
2022-09-15T07:31:10.951Z,84.19
2022-09-15T07:33:38.276Z,84.04
2022-09-15T07:36:06.935Z,83.09
2022-09-15T07:38:34.883Z,82.75
2022-09-15T07:41:06.762Z,80.46
2022-09-15T07:43:33.811Z,81.05
2022-09-15T07:46:00.948Z,81.86
2022-09-15T07:48:27.995Z,81.44
2022-09-15T07:50:54.778Z,81.38
2022-09-15T07:53:22.040Z,79.67
2022-09-15T07:55:58.410Z,78.31
2022-09-15T07:58:25.092Z,80.57
2022-09-15T08:00:51.854Z,80.31
2022-09-15T08:03:18.704Z,80.49
2022-09-15T08:05:45.976Z,80.56
2022-09-15T08:08:13.273Z,80.95
2022-09-15T08:10:40.599Z,80.81
2022-09-15T08:13:07.929Z,79.46
2022-09-15T08:15:36.423Z,78.43
2022-09-15T08:18:03.493Z,80.60
2022-09-15T08:20:30.088Z,80.58
2022-09-15T08:22:56.867Z,80.12
2022-09-15T08:25:23.490Z,80.22
2022-09-15T08:27:50.240Z,80.37
2022-09-15T08:30:18.270Z,79.00
2022-09-15T08:32:44.917Z,78.27
2022-09-15T08:35:11.539Z,77.95
2022-09-15T08:37:39.582Z,78.48
2022-09-15T08:40:07.329Z,78.36
2022-09-15T08:42:34.063Z,77.26
2022-09-15T08:45:07.442Z,78.52
2022-09-15T08:47:39.468Z,78.45
2022-09-15T08:50:29.356Z,78.86
2022-09-15T08:53:05.017Z,78.69
2022-09-15T08:55:43.654Z,77.32
2022-09-15T08:58:19.596Z,77.54
2022-09-15T09:00:49.301Z,75.45
2022-09-15T09:03:32.167Z,76.37
2022-09-15T09:06:21.668Z,78.66
2022-09-15T09:08:48.266Z,77.79
2022-09-15T09:11:36.765Z,76.64
2022-09-15T09:14:16.398Z,77.34
2022-09-15T09:17:16.536Z,75.34
2022-09-15T09:20:01.456Z,75.59
2022-09-15T09:22:35.275Z,74.77
2022-09-15T09:25:21.151Z,76.52
2022-09-15T09:27:50.782Z,76.05
2022-09-15T09:30:22.849Z,76.55
2022-09-15T09:33:10.813Z,76.81
2022-09-15T09:35:45.144Z,76.19
2022-09-15T09:38:18.709Z,76.27
2022-09-15T09:40:45.735Z,74.35
2022-09-15T09:43:12.488Z,75.23
2022-09-15T09:45:39.206Z,75.67
2022-09-15T09:48:26.976Z,75.41
2022-09-15T09:50:53.994Z,76.54
2022-09-15T09:53:32.697Z,75.47
2022-09-15T09:56:17.011Z,74.98
2022-09-15T09:58:44.787Z,75.21
2022-09-15T10:01:19.536Z,77.71
2022-09-15T10:03:50.389Z,76.32
2022-09-15T10:06:22.013Z,77.15
2022-09-15T10:09:09.886Z,75.66
2022-09-15T10:11:45.287Z,76.46
2022-09-15T10:14:31.840Z,74.79
2022-09-15T10:17:14.750Z,75.06
2022-09-15T10:19:51.568Z,74.75
2022-09-15T10:22:30.157Z,74.29
2022-09-15T10:24:58.267Z,74.03
2022-09-15T10:27:27.908Z,72.55
2022-09-15T10:29:55.722Z,70.27
2022-09-15T10:32:25.545Z,69.22
2022-09-15T10:35:04.826Z,69.43
2022-09-15T10:37:36.274Z,69.38
2022-09-15T10:40:25.118Z,67.70
2022-09-15T10:42:53.926Z,68.17
2022-09-15T10:45:33.686Z,70.25
2022-09-15T10:48:15.886Z,69.75
2022-09-15T10:50:45.124Z,70.46
2022-09-15T10:53:30.839Z,71.37
2022-09-15T10:56:13.410Z,71.12
2022-09-15T10:59:12.022Z,71.48
2022-09-15T11:01:56.686Z,71.01
2022-09-15T11:04:42.844Z,73.21
2022-09-15T11:07:27.399Z,74.18
2022-09-15T11:10:01.699Z,75.37
2022-09-15T11:12:48.795Z,75.28
2022-09-15T11:15:41.215Z,76.07
2022-09-15T11:18:29.571Z,77.75
2022-09-15T11:21:14.437Z,78.49
2022-09-15T11:24:03.859Z,78.01
2022-09-15T11:26:40.062Z,78.55
2022-09-15T11:29:20.576Z,77.86
2022-09-15T11:31:52.209Z,78.57
2022-09-15T11:34:28.652Z,77.97
2022-09-15T11:37:03.637Z,77.03
2022-09-15T11:39:41.320Z,76.29
2022-09-15T11:42:15.935Z,75.50
2022-09-15T11:44:44.297Z,73.99
2022-09-15T11:47:47.882Z,73.48
2022-09-15T11:50:25.364Z,72.19
2022-09-15T11:53:03.553Z,72.51
2022-09-15T11:55:30.239Z,73.66
2022-09-15T11:58:09.506Z,72.95
2022-09-15T12:00:44.129Z,70.47
2022-09-15T12:03:21.989Z,70.00
2022-09-15T12:06:00.061Z,70.26
2022-09-15T12:08:36.088Z,69.49
2022-09-15T12:11:08.436Z,67.83
2022-09-15T12:13:36.871Z,67.62
2022-09-15T12:16:03.916Z,67.30
2022-09-15T12:18:41.705Z,66.69
2022-09-15T12:21:16.601Z,66.57
2022-09-15T12:24:08.562Z,66.63
2022-09-15T12:26:36.006Z,65.80
2022-09-15T12:29:24.256Z,62.14
2022-09-15T12:32:29.486Z,61.86
2022-09-15T12:35:28.240Z,62.11
2022-09-15T12:37:57.823Z,62.50
2022-09-15T12:40:30.687Z,63.30
2022-09-15T12:42:57.636Z,61.57
2022-09-15T12:45:31.005Z,61.45
2022-09-15T12:48:05.000Z,61.45
2022-09-15T12:50:36.128Z,61.63
2022-09-15T12:53:25.175Z,61.68
2022-09-15T12:55:53.367Z,60.13
2022-09-15T12:58:33.371Z,57.19
2022-09-15T13:01:18.956Z,56.43
2022-09-15T13:03:46.604Z,53.02
2022-09-15T13:06:30.610Z,53.31
2022-09-15T13:09:03.390Z,52.42
2022-09-15T13:11:49.393Z,53.56
2022-09-15T13:14:32.850Z,52.30
2022-09-15T13:17:07.096Z,52.03
2022-09-15T13:19:33.731Z,53.89
2022-09-15T13:22:06.513Z,54.03
2022-09-15T13:24:46.393Z,52.21
2022-09-15T13:27:17.281Z,52.91
2022-09-15T13:30:02.853Z,53.64
2022-09-15T13:32:50.895Z,53.25
2022-09-15T13:35:36.371Z,55.26
2022-09-15T13:38:40.445Z,54.24
2022-09-15T13:41:22.349Z,53.00
2022-09-15T13:44:07.012Z,54.48
2022-09-15T13:47:01.401Z,53.55
2022-09-15T13:49:30.955Z,53.89
2022-09-15T13:52:03.240Z,53.44
2022-09-15T13:54:29.868Z,53.93
2022-09-15T13:57:01.514Z,56.49
2022-09-15T13:59:33.430Z,53.60
2022-09-15T14:02:00.863Z,53.93
2022-09-15T14:04:31.509Z,55.11
2022-09-15T14:07:01.310Z,55.11
2022-09-15T14:09:34.365Z,55.44
2022-09-15T14:12:09.381Z,56.07
2022-09-15T14:14:40.809Z,56.45
2022-09-15T14:17:24.400Z,56.25
2022-09-15T14:19:54.198Z,56.21
2022-09-15T14:22:23.536Z,55.63
2022-09-15T14:24:50.764Z,55.40
2022-09-15T14:27:22.314Z,55.63
2022-09-15T14:29:51.250Z,55.09
2022-09-15T14:32:18.034Z,56.65
2022-09-15T14:34:45.453Z,55.87
2022-09-15T14:37:24.886Z,55.91
2022-09-15T14:39:52.657Z,55.45
2022-09-15T14:42:23.373Z,56.37
2022-09-15T14:47:39.435Z,55.26
2022-09-15T14:50:19.614Z,56.71
2022-09-15T14:53:18.718Z,57.24
2022-09-15T14:55:52.247Z,57.53
2022-09-15T14:58:33.260Z,55.74
2022-09-15T15:01:17.925Z,56.60
2022-09-15T15:03:54.399Z,55.35
2022-09-15T15:06:30.337Z,54.48
2022-09-15T15:09:06.089Z,55.45
2022-09-15T15:11:35.478Z,54.56
2022-09-15T15:14:03.679Z,55.65
2022-09-15T15:16:31.718Z,54.21
2022-09-15T15:18:58.517Z,54.72
2022-09-15T15:21:37.294Z,57.42
2022-09-15T15:24:12.921Z,57.03
2022-09-15T15:26:42.004Z,56.77
2022-09-15T15:29:39.014Z,55.46
2022-09-15T15:32:11.447Z,54.45
2022-09-15T15:34:38.794Z,54.84
2022-09-15T15:37:16.387Z,53.94
2022-09-15T15:39:46.057Z,55.15
2022-09-15T15:42:16.008Z,53.88
2022-09-15T15:45:21.620Z,54.58
2022-09-15T15:47:48.627Z,54.34
2022-09-15T15:50:18.133Z,54.80
2022-09-15T15:52:44.799Z,56.45
2022-09-15T15:55:39.429Z,56.72
2022-09-15T15:58:06.132Z,56.16
2022-09-15T16:00:53.645Z,56.58
2022-09-15T16:03:21.417Z,56.53
2022-09-15T16:05:53.310Z,56.71
2022-09-15T16:08:44.356Z,57.97
2022-09-15T16:11:14.895Z,58.76
2022-09-15T16:13:41.839Z,57.59
2022-09-15T16:16:19.110Z,57.85
2022-09-15T16:18:46.631Z,57.33
2022-09-15T16:21:35.317Z,58.12
2022-09-15T16:24:03.293Z,57.50
2022-09-15T16:26:29.868Z,57.12
2022-09-15T16:28:56.916Z,57.26
2022-09-15T16:31:23.779Z,57.85
2022-09-15T16:33:50.494Z,57.81
2022-09-15T16:36:17.647Z,57.49
2022-09-15T16:38:45.130Z,57.56
2022-09-15T16:41:20.746Z,57.25
2022-09-15T16:43:47.576Z,57.84
2022-09-15T16:46:14.478Z,58.06
2022-09-15T16:48:44.020Z,59.09
2022-09-15T16:51:27.101Z,58.81
2022-09-15T16:53:58.261Z,58.42
2022-09-15T16:56:24.928Z,57.54
2022-09-15T16:58:54.773Z,58.62
2022-09-15T17:01:24.100Z,58.39
2022-09-15T17:03:50.919Z,60.22
2022-09-15T17:06:17.609Z,59.33
2022-09-15T17:08:44.994Z,59.66
2022-09-15T17:11:16.706Z,59.61
2022-09-15T17:13:44.712Z,60.01
2022-09-15T17:16:13.687Z,60.34
2022-09-15T17:18:40.668Z,59.96
2022-09-15T17:21:10.419Z,59.90
2022-09-15T17:23:40.460Z,60.44
2022-09-15T17:26:11.375Z,60.33
2022-09-15T17:28:38.111Z,59.40
2022-09-15T17:31:11.898Z,60.10
2022-09-15T17:33:38.775Z,60.23
2022-09-15T17:36:05.539Z,60.45
2022-09-15T17:38:32.317Z,61.31
2022-09-15T17:40:58.916Z,60.74
2022-09-15T17:43:28.720Z,59.72
2022-09-15T17:45:55.587Z,60.12
2022-09-15T17:48:23.330Z,60.99
2022-09-15T17:50:50.356Z,60.64
2022-09-15T17:53:18.363Z,60.29
2022-09-15T17:55:44.941Z,60.02
2022-09-15T17:58:11.857Z,61.26
2022-09-15T18:00:40.454Z,60.76
2022-09-15T18:03:27.629Z,61.31
2022-09-15T18:05:57.246Z,61.13
2022-09-15T18:08:24.254Z,61.22
2022-09-15T18:10:51.163Z,62.34
2022-09-15T18:13:20.390Z,63.20
2022-09-15T18:15:48.188Z,62.88
2022-09-15T18:18:20.072Z,62.99
2022-09-15T18:20:47.510Z,62.55
2022-09-15T18:23:16.549Z,62.97
2022-09-15T18:25:44.000Z,63.24
2022-09-15T18:28:10.993Z,63.06
2022-09-15T18:30:41.093Z,62.78
2022-09-15T18:33:14.183Z,63.33
2022-09-15T18:35:41.987Z,62.91
2022-09-15T18:38:09.513Z,63.21
2022-09-15T18:40:36.470Z,62.49
2022-09-15T18:43:03.217Z,62.89
2022-09-15T18:45:29.916Z,63.25
2022-09-15T18:47:56.543Z,63.54
2022-09-15T18:50:24.192Z,63.88
2022-09-15T18:52:50.845Z,63.24
2022-09-15T18:55:19.488Z,63.38
2022-09-15T18:57:46.361Z,69.31
2022-09-15T19:00:18.080Z,68.75
2022-09-15T19:02:45.392Z,62.71
2022-09-15T19:05:13.131Z,61.45
2022-09-15T19:07:39.782Z,60.62
2022-09-15T19:10:07.535Z,61.06
2022-09-15T19:12:38.151Z,61.55
2022-09-15T19:15:10.668Z,62.42
2022-09-15T19:17:39.149Z,63.09
2022-09-15T19:20:07.753Z,62.73
2022-09-15T19:22:35.544Z,63.71
2022-09-15T19:25:02.257Z,64.37
2022-09-15T19:27:29.150Z,64.44
2022-09-15T19:29:55.847Z,64.43
2022-09-15T19:32:23.189Z,64.64
2022-09-15T19:34:50.303Z,64.49
2022-09-15T19:37:19.416Z,64.58
2022-09-15T19:39:47.194Z,64.11
2022-09-15T19:44:42.094Z,64.90
2022-09-15T19:47:09.278Z,64.82
2022-09-15T19:49:36.016Z,65.43
2022-09-15T19:52:02.838Z,65.84
2022-09-15T19:54:30.606Z,65.90
2022-09-15T19:56:57.931Z,66.12
2022-09-15T19:59:30.178Z,66.33
2022-09-15T20:01:58.267Z,67.05
2022-09-15T20:04:24.967Z,66.18
2022-09-15T20:06:51.678Z,66.78
2022-09-15T20:09:18.496Z,67.13
2022-09-15T20:11:45.682Z,68.12
2022-09-15T20:14:12.420Z,67.66
2022-09-15T20:16:39.397Z,67.90
2022-09-15T20:19:06.337Z,67.39
2022-09-15T20:21:51.637Z,67.51
2022-09-15T20:24:20.071Z,67.77
2022-09-15T20:26:47.011Z,67.85
2022-09-15T20:29:13.920Z,68.48
2022-09-15T20:31:41.081Z,68.06
2022-09-15T20:34:07.947Z,68.04
2022-09-15T20:36:36.510Z,67.88
2022-09-15T20:39:06.262Z,68.35
2022-09-15T20:41:32.849Z,68.00
2022-09-15T20:43:59.850Z,67.83
2022-09-15T20:46:27.135Z,68.26
2022-09-15T20:48:53.833Z,67.69
2022-09-15T20:51:23.294Z,67.34
2022-09-15T20:53:55.229Z,68.02
2022-09-15T20:56:24.968Z,68.18
2022-09-15T20:58:53.062Z,68.62
2022-09-15T21:01:22.854Z,69.08
2022-09-15T21:03:50.350Z,68.48
2022-09-15T21:06:22.639Z,68.41
2022-09-15T21:08:50.346Z,67.93
2022-09-15T21:11:19.002Z,68.25
2022-09-15T21:13:47.038Z,68.02
2022-09-15T21:16:19.492Z,68.48
2022-09-15T21:18:46.773Z,68.18
2022-09-15T21:21:17.713Z,68.48
2022-09-15T21:23:49.576Z,68.56
2022-09-15T21:26:18.619Z,68.33
2022-09-15T21:28:45.867Z,68.86
2022-09-15T21:31:15.128Z,68.83
2022-09-15T21:33:42.092Z,69.08
2022-09-15T21:36:15.314Z,68.55
2022-09-15T21:38:42.628Z,68.42
2022-09-15T21:41:11.823Z,68.30
2022-09-15T21:43:40.417Z,68.51
2022-09-15T21:46:11.600Z,68.03
2022-09-15T21:48:38.892Z,68.01
2022-09-15T21:51:07.022Z,67.70
2022-09-15T21:53:34.008Z,68.26
2022-09-15T21:56:05.944Z,68.57
2022-09-15T21:58:32.859Z,68.45
2022-09-15T22:01:09.577Z,69.36
2022-09-15T22:03:36.384Z,70.00
2022-09-15T22:06:03.797Z,69.61
2022-09-15T22:08:30.531Z,70.20
2022-09-15T22:11:00.350Z,69.97
2022-09-15T22:13:27.230Z,70.12
2022-09-15T22:16:00.600Z,70.34
2022-09-15T22:18:27.581Z,70.58
2022-09-15T22:21:16.112Z,71.00
2022-09-15T22:23:44.785Z,74.23
2022-09-15T22:26:16.367Z,76.91
2022-09-15T22:28:43.505Z,78.21
2022-09-15T22:31:12.546Z,77.97
2022-09-15T22:33:40.084Z,79.02
2022-09-15T22:36:14.657Z,79.56
2022-09-15T22:38:41.673Z,79.11
2022-09-15T22:41:10.828Z,79.17
2022-09-15T22:43:38.189Z,79.19
2022-09-15T22:46:06.095Z,79.49
2022-09-15T22:48:33.276Z,78.77
2022-09-15T22:51:00.171Z,77.98
2022-09-15T22:53:27.212Z,77.95
2022-09-15T22:56:05.881Z,78.54
2022-09-15T22:58:33.851Z,78.72
2022-09-15T23:01:09.222Z,78.46
2022-09-15T23:03:37.022Z,78.97
2022-09-15T23:06:04.622Z,79.38
2022-09-15T23:08:32.666Z,79.54
2022-09-15T23:11:12.450Z,80.42
2022-09-15T23:13:40.342Z,79.86
2022-09-15T23:16:08.274Z,78.70
2022-09-15T23:18:36.240Z,79.10
2022-09-15T23:21:06.311Z,78.54
2022-09-15T23:23:35.026Z,78.12
2022-09-15T23:26:02.367Z,78.28
2022-09-15T23:28:30.825Z,78.32
2022-09-15T23:30:58.831Z,77.75
2022-09-15T23:33:27.609Z,78.88
2022-09-15T23:35:54.420Z,78.57
2022-09-15T23:38:22.342Z,78.25
2022-09-15T23:40:49.549Z,77.97
2022-09-15T23:43:17.237Z,77.77
2022-09-15T23:45:45.058Z,78.63
2022-09-15T23:48:13.131Z,78.67
2022-09-15T23:50:40.857Z,78.81
2022-09-15T23:53:07.990Z,79.32
2022-09-15T23:55:34.793Z,79.80
2022-09-15T23:58:01.844Z,80.57
